Terminal Aerodrome Forecast
Issued by NWS Charleston, WV

Current Version | Previous Version | Graphics & Text | Print | Product List | Glossary On
Versions: 1 2 3 4 5 6 7 8 9 10 11 12 13 14 15 16 17 18 19 20 21 22 23 24 25 26 27 28 29 30 31 32 33
000
FTUS41 KRLX 212358
TAFEKN
TAF
KEKN 212358Z 2200/2224 17010G20KT 4SM RA VCTS BKN035CB
     FM220300 00000KT P6SM BKN050
     FM220600 00000KT 2SM BR SCT002 BKN050
     FM221300 22003KT P6SM BKN035
     FM222100 25007KT 6SM SHRA VCTS BKN035CB=

USA.gov is the U.S. government's official web portal to all federal, state and local government web resources and services.